sensor_id;sensor_type;location;lat;lon;timestamp;P1;durP1;ratioP1;P2;durP2;ratioP2
57535;SDS011;43361;49.790;8.960;2023-06-26T00:15:11;6.25;;;4.95;;
57535;SDS011;43361;49.790;8.960;2023-06-26T00:25:12;6.30;;;5.07;;
57535;SDS011;43361;49.790;8.960;2023-06-26T00:35:14;5.22;;;4.57;;
57535;SDS011;43361;49.790;8.960;2023-06-26T00:45:14;6.15;;;4.95;;
57535;SDS011;43361;49.790;8.960;2023-06-26T00:55:16;5.07;;;4.47;;
57535;SDS011;43361;49.790;8.960;2023-06-26T01:05:17;5.68;;;5.00;;
57535;SDS011;43361;49.790;8.960;2023-06-26T01:15:22;5.57;;;4.80;;
57535;SDS011;43361;49.790;8.960;2023-06-26T01:25:23;4.85;;;4.18;;
57535;SDS011;43361;49.790;8.960;2023-06-26T01:35:31;5.68;;;4.90;;
57535;SDS011;43361;49.790;8.960;2023-06-26T01:45:31;5.65;;;4.28;;
57535;SDS011;43361;49.790;8.960;2023-06-26T01:55:35;5.10;;;4.60;;
57535;SDS011;43361;49.790;8.960;2023-06-26T02:05:37;5.20;;;4.70;;
57535;SDS011;43361;49.790;8.960;2023-06-26T02:15:39;5.40;;;4.40;;
57535;SDS011;43361;49.790;8.960;2023-06-26T02:25:39;5.07;;;4.57;;
57535;SDS011;43361;49.790;8.960;2023-06-26T02:35:41;6.93;;;4.90;;
57535;SDS011;43361;49.790;8.960;2023-06-26T02:45:41;4.47;;;3.83;;
57535;SDS011;43361;49.790;8.960;2023-06-26T02:55:43;4.63;;;4.20;;
57535;SDS011;43361;49.790;8.960;2023-06-26T03:05:43;5.53;;;4.30;;
57535;SDS011;43361;49.790;8.960;2023-06-26T03:15:45;4.90;;;4.40;;
57535;SDS011;43361;49.790;8.960;2023-06-26T03:25:46;4.55;;;4.10;;
57535;SDS011;43361;49.790;8.960;2023-06-26T03:35:47;5.47;;;4.45;;
57535;SDS011;43361;49.790;8.960;2023-06-26T03:45:48;4.95;;;4.45;;
57535;SDS011;43361;49.790;8.960;2023-06-26T03:55:50;5.72;;;4.18;;
57535;SDS011;43361;49.790;8.960;2023-06-26T04:05:50;4.53;;;3.97;;
57535;SDS011;43361;49.790;8.960;2023-06-26T04:15:52;6.60;;;4.45;;
57535;SDS011;43361;49.790;8.960;2023-06-26T04:25:52;4.43;;;3.80;;
57535;SDS011;43361;49.790;8.960;2023-06-26T04:35:54;4.63;;;4.03;;
57535;SDS011;43361;49.790;8.960;2023-06-26T04:45:54;4.68;;;4.18;;
57535;SDS011;43361;49.790;8.960;2023-06-26T04:55:56;4.60;;;3.80;;
57535;SDS011;43361;49.790;8.960;2023-06-26T05:05:57;5.55;;;4.25;;
57535;SDS011;43361;49.790;8.960;2023-06-26T05:15:58;5.22;;;4.32;;
57535;SDS011;43361;49.790;8.960;2023-06-26T05:25:59;11.57;;;4.65;;
57535;SDS011;43361;49.790;8.960;2023-06-26T05:36:01;13.50;;;5.77;;
57535;SDS011;43361;49.790;8.960;2023-06-26T05:46:03;13.82;;;5.70;;
57535;SDS011;43361;49.790;8.960;2023-06-26T05:56:06;13.10;;;5.90;;
57535;SDS011;43361;49.790;8.960;2023-06-26T06:06:06;21.83;;;5.80;;
57535;SDS011;43361;49.790;8.960;2023-06-26T06:16:08;11.05;;;5.85;;
57535;SDS011;43361;49.790;8.960;2023-06-26T06:26:08;14.57;;;5.85;;
57535;SDS011;43361;49.790;8.960;2023-06-26T06:36:10;13.88;;;5.85;;
57535;SDS011;43361;49.790;8.960;2023-06-26T06:46:10;13.63;;;5.75;;
57535;SDS011;43361;49.790;8.960;2023-06-26T06:56:12;11.32;;;6.05;;
57535;SDS011;43361;49.790;8.960;2023-06-26T07:06:13;10.45;;;5.25;;
57535;SDS011;43361;49.790;8.960;2023-06-26T07:16:15;7.18;;;5.72;;
57535;SDS011;43361;49.790;8.960;2023-06-26T07:26:15;10.27;;;5.85;;
57535;SDS011;43361;49.790;8.960;2023-06-26T07:36:17;8.87;;;5.90;;
57535;SDS011;43361;49.790;8.960;2023-06-26T07:46:17;8.85;;;5.55;;
57535;SDS011;43361;49.790;8.960;2023-06-26T07:56:19;12.90;;;6.00;;
57535;SDS011;43361;49.790;8.960;2023-06-26T08:06:20;10.32;;;5.68;;
57535;SDS011;43361;49.790;8.960;2023-06-26T08:16:21;9.90;;;5.75;;
57535;SDS011;43361;49.790;8.960;2023-06-26T08:26:22;9.05;;;5.53;;
57535;SDS011;43361;49.790;8.960;2023-06-26T08:36:23;10.52;;;5.82;;
57535;SDS011;43361;49.790;8.960;2023-06-26T08:46:24;10.75;;;5.80;;
57535;SDS011;43361;49.790;8.960;2023-06-26T08:56:27;7.28;;;5.32;;
57535;SDS011;43361;49.790;8.960;2023-06-26T09:06:28;11.95;;;6.15;;
57535;SDS011;43361;49.790;8.960;2023-06-26T09:16:30;18.17;;;6.40;;
57535;SDS011;43361;49.790;8.960;2023-06-26T09:26:31;49.55;;;16.05;;
57535;SDS011;43361;49.790;8.960;2023-06-26T09:36:33;414.30;;;128.35;;
57535;SDS011;43361;49.790;8.960;2023-06-26T09:46:33;378.27;;;125.35;;
57535;SDS011;43361;49.790;8.960;2023-06-26T09:56:36;297.02;;;104.80;;
57535;SDS011;43361;49.790;8.960;2023-06-26T10:06:37;272.65;;;100.18;;
57535;SDS011;43361;49.790;8.960;2023-06-26T10:16:40;252.60;;;91.05;;
57535;SDS011;43361;49.790;8.960;2023-06-26T10:26:42;236.13;;;90.13;;
57535;SDS011;43361;49.790;8.960;2023-06-26T10:36:45;220.82;;;80.60;;
57535;SDS011;43361;49.790;8.960;2023-06-26T10:46:50;203.88;;;77.55;;
57535;SDS011;43361;49.790;8.960;2023-06-26T10:56:55;192.77;;;74.07;;
57535;SDS011;43361;49.790;8.960;2023-06-26T11:07:14;176.93;;;69.03;;
57535;SDS011;43361;49.790;8.960;2023-06-26T11:17:16;174.02;;;68.65;;
57535;SDS011;43361;49.790;8.960;2023-06-26T11:27:18;157.95;;;64.28;;
57535;SDS011;43361;49.790;8.960;2023-06-26T11:37:21;150.30;;;60.83;;
57535;SDS011;43361;49.790;8.960;2023-06-26T11:47:22;152.50;;;60.30;;
57535;SDS011;43361;49.790;8.960;2023-06-26T11:57:24;138.23;;;54.97;;
57535;SDS011;43361;49.790;8.960;2023-06-26T12:07:24;117.57;;;48.92;;
57535;SDS011;43361;49.790;8.960;2023-06-26T12:17:26;108.60;;;46.53;;
57535;SDS011;43361;49.790;8.960;2023-06-26T12:27:27;114.80;;;47.33;;
57535;SDS011;43361;49.790;8.960;2023-06-26T12:37:36;104.85;;;45.08;;
57535;SDS011;43361;49.790;8.960;2023-06-26T12:47:37;97.43;;;42.17;;
57535;SDS011;43361;49.790;8.960;2023-06-26T12:57:39;95.35;;;39.60;;
57535;SDS011;43361;49.790;8.960;2023-06-26T13:07:40;85.18;;;38.47;;
57535;SDS011;43361;49.790;8.960;2023-06-26T13:17:42;78.15;;;35.17;;
57535;SDS011;43361;49.790;8.960;2023-06-26T13:27:42;78.03;;;36.03;;
57535;SDS011;43361;49.790;8.960;2023-06-26T13:37:44;77.57;;;34.47;;
57535;SDS011;43361;49.790;8.960;2023-06-26T13:47:44;69.47;;;32.97;;
57535;SDS011;43361;49.790;8.960;2023-06-26T13:57:46;65.80;;;31.25;;
57535;SDS011;43361;49.790;8.960;2023-06-26T14:07:47;59.45;;;30.20;;
57535;SDS011;43361;49.790;8.960;2023-06-26T14:17:49;59.88;;;28.02;;
57535;SDS011;43361;49.790;8.960;2023-06-26T14:27:50;59.30;;;27.00;;
57535;SDS011;43361;49.790;8.960;2023-06-26T14:37:52;54.60;;;26.23;;
57535;SDS011;43361;49.790;8.960;2023-06-26T14:47:53;55.47;;;26.27;;
57535;SDS011;43361;49.790;8.960;2023-06-26T14:57:55;54.33;;;25.15;;
57535;SDS011;43361;49.790;8.960;2023-06-26T15:07:55;46.17;;;23.95;;
57535;SDS011;43361;49.790;8.960;2023-06-26T15:17:57;46.58;;;22.88;;
57535;SDS011;43361;49.790;8.960;2023-06-26T15:27:57;54.70;;;24.60;;
57535;SDS011;43361;49.790;8.960;2023-06-26T15:37:59;47.65;;;22.67;;
57535;SDS011;43361;49.790;8.960;2023-06-26T15:47:59;40.65;;;21.23;;
57535;SDS011;43361;49.790;8.960;2023-06-26T15:58:01;42.55;;;21.60;;
57535;SDS011;43361;49.790;8.960;2023-06-26T16:08:01;23.25;;;10.48;;
57535;SDS011;43361;49.790;8.960;2023-06-26T16:18:03;32.90;;;17.70;;
57535;SDS011;43361;49.790;8.960;2023-06-26T16:28:04;38.50;;;18.92;;
57535;SDS011;43361;49.790;8.960;2023-06-26T16:38:06;49.88;;;21.02;;
57535;SDS011;43361;49.790;8.960;2023-06-26T16:48:07;39.10;;;17.08;;
57535;SDS011;43361;49.790;8.960;2023-06-26T16:58:09;37.20;;;17.17;;
57535;SDS011;43361;49.790;8.960;2023-06-26T17:08:10;36.85;;;16.20;;
57535;SDS011;43361;49.790;8.960;2023-06-26T17:18:12;33.47;;;15.40;;
57535;SDS011;43361;49.790;8.960;2023-06-26T17:28:12;31.77;;;15.77;;
57535;SDS011;43361;49.790;8.960;2023-06-26T17:38:14;32.63;;;15.05;;
57535;SDS011;43361;49.790;8.960;2023-06-26T17:48:15;36.47;;;14.93;;
57535;SDS011;43361;49.790;8.960;2023-06-26T17:58:17;35.33;;;15.20;;
57535;SDS011;43361;49.790;8.960;2023-06-26T18:08:21;33.10;;;14.98;;
57535;SDS011;43361;49.790;8.960;2023-06-26T18:18:25;31.95;;;15.23;;
57535;SDS011;43361;49.790;8.960;2023-06-26T18:28:26;29.17;;;13.48;;
57535;SDS011;43361;49.790;8.960;2023-06-26T18:38:29;26.88;;;13.30;;
57535;SDS011;43361;49.790;8.960;2023-06-26T18:48:30;29.45;;;12.88;;
57535;SDS011;43361;49.790;8.960;2023-06-26T18:58:32;22.30;;;12.68;;
57535;SDS011;43361;49.790;8.960;2023-06-26T19:08:33;26.42;;;12.95;;
57535;SDS011;43361;49.790;8.960;2023-06-26T19:18:35;25.30;;;12.00;;
57535;SDS011;43361;49.790;8.960;2023-06-26T19:28:37;25.88;;;12.13;;
57535;SDS011;43361;49.790;8.960;2023-06-26T19:38:42;20.05;;;10.88;;
57535;SDS011;43361;49.790;8.960;2023-06-26T19:48:43;23.05;;;11.30;;
57535;SDS011;43361;49.790;8.960;2023-06-26T19:58:45;20.38;;;10.60;;
57535;SDS011;43361;49.790;8.960;2023-06-26T20:08:45;19.17;;;9.82;;
57535;SDS011;43361;49.790;8.960;2023-06-26T20:18:47;18.30;;;9.02;;
57535;SDS011;43361;49.790;8.960;2023-06-26T20:28:47;16.63;;;9.73;;
57535;SDS011;43361;49.790;8.960;2023-06-26T20:38:49;17.17;;;9.80;;
57535;SDS011;43361;49.790;8.960;2023-06-26T20:48:50;23.58;;;10.68;;
57535;SDS011;43361;49.790;8.960;2023-06-26T20:58:52;18.07;;;9.30;;
57535;SDS011;43361;49.790;8.960;2023-06-26T21:08:52;16.45;;;9.13;;
57535;SDS011;43361;49.790;8.960;2023-06-26T21:18:54;17.90;;;9.00;;
57535;SDS011;43361;49.790;8.960;2023-06-26T21:28:55;15.48;;;9.05;;
57535;SDS011;43361;49.790;8.960;2023-06-26T21:38:56;13.20;;;8.25;;
57535;SDS011;43361;49.790;8.960;2023-06-26T21:48:57;15.55;;;8.23;;
57535;SDS011;43361;49.790;8.960;2023-06-26T21:58:59;14.88;;;8.55;;
57535;SDS011;43361;49.790;8.960;2023-06-26T22:08:59;13.68;;;7.40;;
57535;SDS011;43361;49.790;8.960;2023-06-26T22:19:01;13.25;;;7.32;;
57535;SDS011;43361;49.790;8.960;2023-06-26T22:29:01;14.23;;;7.80;;
57535;SDS011;43361;49.790;8.960;2023-06-26T22:39:03;13.65;;;7.57;;
57535;SDS011;43361;49.790;8.960;2023-06-26T22:49:04;11.25;;;6.85;;
57535;SDS011;43361;49.790;8.960;2023-06-26T22:59:06;13.20;;;7.68;;
57535;SDS011;43361;49.790;8.960;2023-06-26T23:09:06;12.50;;;6.78;;
57535;SDS011;43361;49.790;8.960;2023-06-26T23:19:08;11.82;;;6.80;;
57535;SDS011;43361;49.790;8.960;2023-06-26T23:29:09;9.30;;;6.55;;
57535;SDS011;43361;49.790;8.960;2023-06-26T23:39:11;12.25;;;7.25;;
57535;SDS011;43361;49.790;8.960;2023-06-26T23:49:12;11.35;;;6.68;;
57535;SDS011;43361;49.790;8.960;2023-06-26T23:59:14;10.27;;;6.07;;
